createdAt,value
2019-03-17T00:03:24.328Z,98349.91
2019-03-17T00:06:10.819Z,98346.13
2019-03-17T00:08:57.229Z,98339.29
2019-03-17T00:16:50.309Z,98352.30
2019-03-17T00:19:18.126Z,98338.33
2019-03-17T00:22:04.601Z,98323.86
2019-03-17T00:24:32.505Z,98326.52
2019-03-17T00:27:18.991Z,98322.38
2019-03-17T00:29:47.186Z,98307.73
2019-03-17T00:32:15.284Z,98307.73
2019-03-17T00:34:44.372Z,98302.06
2019-03-17T00:37:12.323Z,98302.06
2019-03-17T00:39:40.460Z,98290.27
2019-03-17T00:42:08.227Z,98292.92
2019-03-17T00:44:35.955Z,98292.92
2019-03-17T00:47:04.031Z,98289.78
2019-03-17T00:49:31.808Z,98284.79
2019-03-17T00:51:59.625Z,98284.79
2019-03-17T00:54:58.590Z,98294.61
2019-03-17T01:00:20.653Z,98276.14
2019-03-17T01:03:07.113Z,98281.16
2019-03-17T01:05:53.501Z,98281.16
2019-03-17T01:11:12.807Z,98259.18
2019-03-17T01:16:45.750Z,98251.34
2019-03-17T01:19:13.488Z,98251.34
2019-03-17T01:24:33.426Z,98233.73
2019-03-17T01:27:01.226Z,98231.55
2019-03-17T01:29:47.680Z,98226.74
2019-03-17T01:32:15.549Z,98226.74
2019-03-17T01:35:09.151Z,98220.23
2019-03-17T01:37:50.078Z,98230.39
2019-03-17T01:40:36.535Z,98230.39
2019-03-17T01:43:04.360Z,98209.26
2019-03-17T01:45:50.822Z,98209.26
2019-03-17T01:48:18.739Z,98217.25
2019-03-17T01:51:05.195Z,98201.58
2019-03-17T01:53:33.524Z,98189.60
2019-03-17T01:56:20.000Z,98189.60
2019-03-17T01:58:47.802Z,98190.77
2019-03-17T02:04:07.424Z,98168.32
2019-03-17T02:06:54.187Z,98183.28
2019-03-17T02:09:21.915Z,98183.28
2019-03-17T02:14:41.733Z,98169.47
2019-03-17T02:20:14.696Z,98168.46
2019-03-17T02:23:01.116Z,98163.31
2019-03-17T02:25:47.599Z,98147.34
2019-03-17T02:28:15.430Z,98147.34
2019-03-17T02:31:01.913Z,98160.34
2019-03-17T02:36:34.882Z,98154.17
2019-03-17T02:39:02.689Z,98158.83
2019-03-17T02:41:32.155Z,98158.83
2019-03-17T02:44:18.607Z,98148.69
2019-03-17T02:46:46.476Z,98148.69
2019-03-17T02:49:33.294Z,98145.51
2019-03-17T02:52:19.780Z,98134.53
2019-03-17T02:55:06.258Z,98124.08
2019-03-17T02:57:34.152Z,98122.74
2019-03-17T03:00:20.597Z,98119.72
2019-03-17T03:02:48.415Z,98114.76
2019-03-17T03:05:34.872Z,98114.76
2019-03-17T03:08:21.332Z,98106.77
2019-03-17T03:11:07.763Z,98106.77
2019-03-17T03:13:35.594Z,98091.45
2019-03-17T03:16:22.045Z,98091.45
2019-03-17T03:19:08.449Z,98087.14
2019-03-17T03:24:28.178Z,98078.64
2019-03-17T03:26:56.356Z,98078.64
2019-03-17T03:29:42.853Z,98079.80
2019-03-17T03:35:03.046Z,98078.15
2019-03-17T03:40:17.552Z,98066.98
2019-03-17T03:43:03.969Z,98066.98
2019-03-17T03:45:31.724Z,98073.83
2019-03-17T03:53:18.546Z,98066.18
2019-03-17T03:56:04.891Z,98067.67
2019-03-17T03:58:32.603Z,98067.67
2019-03-17T04:01:19.238Z,98049.03
2019-03-17T04:03:49.022Z,98049.03
2019-03-17T04:06:26.412Z,98064.19
2019-03-17T04:08:46.089Z,98049.22
2019-03-17T04:11:13.853Z,98038.56
2019-03-17T04:13:41.499Z,98038.56
2019-03-17T04:16:27.959Z,98036.25
2019-03-17T04:18:55.681Z,98036.25
2019-03-17T04:21:42.127Z,98047.05
2019-03-17T04:24:09.695Z,98041.73
2019-03-17T04:26:37.404Z,98048.55
2019-03-17T04:29:05.169Z,98048.55
2019-03-17T04:31:51.596Z,98045.25
2019-03-17T04:34:19.715Z,98045.25
2019-03-17T04:36:47.511Z,98037.27
2019-03-17T04:42:06.792Z,98039.59
2019-03-17T04:44:34.346Z,98039.59
2019-03-17T04:47:20.812Z,98031.59
2019-03-17T04:49:48.512Z,98031.59
2019-03-17T04:52:34.926Z,98044.91
2019-03-17T04:55:21.370Z,98046.73
2019-03-17T04:57:48.967Z,98057.20
2019-03-17T05:00:35.350Z,98057.20
2019-03-17T05:03:03.129Z,98061.87
2019-03-17T05:05:30.894Z,98068.50
2019-03-17T05:07:58.692Z,98075.10
2019-03-17T05:10:26.969Z,98075.10
2019-03-17T05:12:55.105Z,98076.75
2019-03-17T05:15:22.774Z,98076.75
2019-03-17T05:17:50.438Z,98081.73
2019-03-17T05:20:18.063Z,98084.03
2019-03-17T05:22:47.596Z,98084.03
2019-03-17T05:25:15.257Z,98089.66
2019-03-17T05:28:15.889Z,98080.01
2019-03-17T05:30:33.530Z,98080.01
2019-03-17T05:33:19.912Z,98076.00
2019-03-17T05:35:48.008Z,98076.00
2019-03-17T05:38:34.651Z,98087.17
2019-03-17T05:41:21.110Z,98086.11
2019-03-17T05:43:48.692Z,98082.38
2019-03-17T05:46:35.095Z,98082.38
2019-03-17T05:49:02.649Z,98085.27
2019-03-17T05:51:30.394Z,98093.84
2019-03-17T05:53:58.065Z,98092.75
2019-03-17T05:56:44.475Z,98093.41
2019-03-17T05:59:12.116Z,98095.06
2019-03-17T06:01:39.888Z,98095.06
2019-03-17T06:04:07.636Z,98101.84
2019-03-17T06:06:35.400Z,98101.84
2019-03-17T06:11:35.649Z,98109.13
2019-03-17T06:14:22.474Z,98114.58
2019-03-17T06:19:55.339Z,98107.93
2019-03-17T06:22:22.923Z,98112.18
2019-03-17T06:25:09.366Z,98112.18
2019-03-17T06:27:36.977Z,98115.97
2019-03-17T06:30:23.686Z,98126.86
2019-03-17T06:32:51.304Z,98110.79
2019-03-17T06:35:19.020Z,98132.95
2019-03-17T06:37:46.771Z,98111.88
2019-03-17T06:40:14.457Z,98111.88
2019-03-17T06:43:00.809Z,98120.81
2019-03-17T06:45:28.498Z,98116.50
2019-03-17T06:47:56.250Z,98131.56
2019-03-17T06:50:42.619Z,98131.93
2019-03-17T06:53:10.331Z,98136.92
2019-03-17T06:55:56.686Z,98136.92
2019-03-17T07:01:17.524Z,98144.41
2019-03-17T07:03:45.154Z,98144.41
2019-03-17T07:06:44.189Z,98148.58
2019-03-17T07:09:01.523Z,98153.04
2019-03-17T07:11:48.324Z,98152.56
2019-03-17T07:14:16.299Z,98163.02
2019-03-17T07:17:02.895Z,98155.07
2019-03-17T07:19:30.679Z,98161.70
2019-03-17T07:21:58.444Z,98161.70
2019-03-17T07:24:26.030Z,98161.52
2019-03-17T07:27:12.465Z,98155.23
2019-03-17T07:29:40.166Z,98155.23
2019-03-17T07:32:07.831Z,98159.72
2019-03-17T07:34:54.545Z,98170.02
2019-03-17T07:37:40.999Z,98167.50
2019-03-17T07:40:27.385Z,98173.31
2019-03-17T07:42:55.105Z,98183.59
2019-03-17T07:45:24.822Z,98183.59
2019-03-17T07:48:11.218Z,98188.72
2019-03-17T07:53:12.282Z,98194.39
2019-03-17T07:55:58.623Z,98197.72
2019-03-17T07:58:45.043Z,98213.17
2019-03-17T08:01:31.399Z,98216.02
2019-03-17T08:03:59.149Z,98235.27
2019-03-17T08:06:45.508Z,98215.70
2019-03-17T08:09:13.304Z,98215.70
2019-03-17T08:11:40.931Z,98241.55
2019-03-17T08:14:08.523Z,98249.77
2019-03-17T08:16:36.201Z,98249.77
2019-03-17T08:22:08.163Z,98280.19
2019-03-17T08:24:25.196Z,98280.19
2019-03-17T08:26:52.946Z,98296.99
2019-03-17T08:29:39.357Z,98327.50
2019-03-17T08:32:25.751Z,98334.84
2019-03-17T08:35:12.169Z,98354.81
2019-03-17T08:37:58.912Z,98358.31
2019-03-17T08:40:45.685Z,98358.31
2019-03-17T08:43:13.238Z,98371.16
2019-03-17T08:45:59.705Z,98373.79
2019-03-17T08:48:58.127Z,98379.49
2019-03-17T08:51:46.520Z,98380.67
2019-03-17T08:54:03.491Z,98380.67
2019-03-17T08:56:49.879Z,98380.67
2019-03-17T09:02:22.731Z,98382.55
2019-03-17T09:05:09.150Z,98384.56
2019-03-17T09:08:10.129Z,98384.56
2019-03-17T09:10:27.385Z,98389.09
2019-03-17T09:15:43.399Z,98404.05
2019-03-17T09:18:29.793Z,98408.11
2019-03-17T09:20:57.508Z,98411.80
2019-03-17T09:23:25.159Z,98411.80
2019-03-17T09:26:11.561Z,98409.38
2019-03-17T09:28:39.129Z,98412.27
2019-03-17T09:31:07.612Z,98412.27
2019-03-17T09:33:54.872Z,98419.84
2019-03-17T09:36:22.482Z,98414.63
2019-03-17T09:39:22.930Z,98417.20
2019-03-17T09:41:38.295Z,98406.61
2019-03-17T09:44:26.829Z,98403.80
2019-03-17T09:46:54.608Z,98409.22
2019-03-17T09:49:41.004Z,98409.42
2019-03-17T09:52:08.619Z,98416.95
2019-03-17T09:54:36.342Z,98410.88
2019-03-17T09:57:22.722Z,98410.88
2019-03-17T10:02:43.422Z,98403.23
2019-03-17T10:05:29.831Z,98404.48
2019-03-17T10:08:16.180Z,98404.48
2019-03-17T10:10:46.176Z,98405.05
2019-03-17T10:13:32.485Z,98400.58
2019-03-17T10:16:18.910Z,98405.53
2019-03-17T10:19:05.268Z,98405.53
2019-03-17T10:21:34.565Z,98421.26
2019-03-17T10:27:07.420Z,98405.92
2019-03-17T10:29:53.825Z,98416.03
2019-03-17T10:32:21.529Z,98415.30
2019-03-17T10:35:07.983Z,98428.27
2019-03-17T10:37:35.601Z,98428.27
2019-03-17T10:40:03.784Z,98419.44
2019-03-17T10:42:50.187Z,98419.44
2019-03-17T10:45:19.988Z,98410.14
2019-03-17T10:48:06.450Z,98410.84
2019-03-17T10:50:52.832Z,98416.36
2019-03-17T10:53:39.244Z,98424.62
2019-03-17T10:56:06.785Z,98424.62
2019-03-17T10:58:53.258Z,98429.33
2019-03-17T11:01:21.333Z,98429.33
2019-03-17T11:04:07.783Z,98458.56
2019-03-17T11:06:35.341Z,98465.39
2019-03-17T11:12:08.110Z,98483.53
2019-03-17T11:14:54.515Z,98535.78
2019-03-17T11:20:18.497Z,98543.35
2019-03-17T11:23:04.888Z,98554.07
2019-03-17T11:31:35.960Z,98549.34
2019-03-17T11:34:03.523Z,98558.09
2019-03-17T11:37:04.026Z,98558.09
2019-03-17T11:39:19.169Z,98551.93
2019-03-17T11:42:05.706Z,98559.67
2019-03-17T11:44:33.282Z,98553.27
2019-03-17T11:47:19.616Z,98553.27
2019-03-17T11:53:11.088Z,98530.53
2019-03-17T11:55:47.690Z,98531.88
2019-03-17T11:58:34.121Z,98531.88
2019-03-17T12:01:01.724Z,98533.91
2019-03-17T12:03:48.142Z,98524.02
2019-03-17T12:06:16.074Z,98524.02
2019-03-17T12:09:04.660Z,98517.88
2019-03-17T12:11:52.568Z,98515.03
2019-03-17T12:14:39.040Z,98542.23
2019-03-17T12:17:06.684Z,98558.89
2019-03-17T12:19:53.145Z,98550.42
2019-03-17T12:22:22.694Z,98549.31
2019-03-17T12:25:11.484Z,98549.31
2019-03-17T12:27:38.525Z,98564.72
2019-03-17T12:30:24.942Z,98561.39
2019-03-17T12:33:11.328Z,98554.69
2019-03-17T12:35:57.782Z,98554.69
2019-03-17T12:38:25.313Z,98534.80
2019-03-17T12:41:11.719Z,98520.94
2019-03-17T12:46:31.375Z,98539.53
2019-03-17T12:52:04.303Z,98530.03
2019-03-17T12:54:32.233Z,98533.11
2019-03-17T12:57:18.639Z,98532.64
2019-03-17T13:00:05.332Z,98525.62
2019-03-17T13:02:51.776Z,98540.16
2019-03-17T13:05:19.402Z,98540.16
2019-03-17T13:10:38.373Z,98561.11
2019-03-17T13:13:06.240Z,98561.11
2019-03-17T13:15:52.676Z,98573.84
2019-03-17T13:18:20.270Z,98575.58
2019-03-17T13:21:06.706Z,98567.75
2019-03-17T13:26:39.705Z,98573.02
2019-03-17T13:28:56.737Z,98573.02
2019-03-17T13:31:43.089Z,98575.05
2019-03-17T13:34:11.156Z,98582.76
2019-03-17T13:37:00.091Z,98592.43
2019-03-17T13:39:28.129Z,98589.67
2019-03-17T13:42:14.551Z,98589.67
2019-03-17T13:47:34.331Z,98604.45
2019-03-17T13:50:20.710Z,98625.12
2019-03-17T13:53:07.134Z,98621.15
2019-03-17T13:55:53.550Z,98621.00
2019-03-17T13:58:39.933Z,98621.00
2019-03-17T14:01:07.543Z,98620.17
2019-03-17T14:03:54.990Z,98625.22
2019-03-17T14:06:23.158Z,98637.07
2019-03-17T14:09:09.555Z,98635.11
2019-03-17T14:14:28.654Z,98668.78
2019-03-17T14:16:56.356Z,98668.78
2019-03-17T14:19:24.225Z,98680.69
2019-03-17T14:22:10.641Z,98688.80
2019-03-17T14:24:38.368Z,98684.20
2019-03-17T14:27:29.337Z,98704.73
2019-03-17T14:30:15.761Z,98706.10
2019-03-17T14:33:02.154Z,98701.95
2019-03-17T14:35:30.261Z,98701.95
2019-03-17T14:40:53.838Z,98720.72
2019-03-17T14:46:26.348Z,98710.41
2019-03-17T14:48:54.105Z,98710.41
2019-03-17T14:51:40.574Z,98709.00
2019-03-17T14:57:16.818Z,98713.22
2019-03-17T15:02:41.157Z,98731.50
2019-03-17T15:05:27.534Z,98744.95
2019-03-17T15:08:14.189Z,98744.95
2019-03-17T15:11:05.842Z,98751.73
2019-03-17T15:13:48.631Z,98759.34
2019-03-17T15:16:37.107Z,98770.43
2019-03-17T15:19:23.049Z,98770.43
2019-03-17T15:24:42.613Z,98761.28
2019-03-17T15:27:28.978Z,98758.31
2019-03-17T15:30:15.396Z,98758.31
2019-03-17T15:32:43.038Z,98763.63
2019-03-17T15:35:29.463Z,98778.08
2019-03-17T15:37:57.052Z,98782.86
2019-03-17T15:40:43.475Z,98780.61
2019-03-17T15:43:29.925Z,98789.61
2019-03-17T15:46:16.372Z,98789.61
2019-03-17T15:48:43.966Z,98803.88
2019-03-17T15:54:37.945Z,98804.92
2019-03-17T15:57:24.374Z,98804.92
2019-03-17T16:00:26.673Z,98805.63
2019-03-17T16:02:58.807Z,98805.63
2019-03-17T16:05:26.476Z,98813.88
2019-03-17T16:08:12.888Z,98804.50
2019-03-17T16:10:40.459Z,98791.98
2019-03-17T16:16:18.672Z,98809.20
2019-03-17T16:19:05.031Z,98809.20
2019-03-17T16:21:41.942Z,98819.34
2019-03-17T16:24:28.340Z,98831.14
2019-03-17T16:27:15.847Z,98828.18
2019-03-17T16:33:08.943Z,98843.19
2019-03-17T16:35:55.344Z,98843.75
2019-03-17T16:41:16.925Z,98848.58
2019-03-17T16:44:03.278Z,98852.14
2019-03-17T16:46:52.233Z,98858.33
2019-03-17T16:49:38.685Z,98861.27
2019-03-17T16:52:25.099Z,98857.06
2019-03-17T16:54:52.818Z,98855.98
2019-03-17T16:57:22.341Z,98855.98
2019-03-17T16:59:50.290Z,98870.57
2019-03-17T17:02:23.963Z,98873.78
2019-03-17T17:04:51.584Z,98887.98
2019-03-17T17:07:22.263Z,98887.98
2019-03-17T17:09:49.902Z,98908.06
2019-03-17T17:12:23.685Z,98966.90
2019-03-17T17:14:51.930Z,98966.90
2019-03-17T17:17:19.522Z,98975.75
2019-03-17T17:19:50.150Z,98975.75
2019-03-17T17:22:22.092Z,98972.47
2019-03-17T17:24:49.474Z,98991.65
2019-03-17T17:27:20.656Z,98990.76
2019-03-17T17:29:48.373Z,98990.76
2019-03-17T17:32:21.868Z,98948.95
2019-03-17T17:34:49.879Z,98949.77
2019-03-17T17:37:17.913Z,98959.47
2019-03-17T17:39:45.541Z,98965.72
2019-03-17T17:42:16.598Z,98967.30
2019-03-17T17:50:02.043Z,98968.17
2019-03-17T17:52:48.477Z,98977.53
2019-03-17T17:55:16.212Z,98977.53
2019-03-17T17:58:02.563Z,98987.55
2019-03-17T18:06:01.422Z,98995.77
2019-03-17T18:08:29.036Z,98991.49
2019-03-17T18:11:15.426Z,98998.98
2019-03-17T18:16:36.422Z,98997.15
2019-03-17T18:19:29.524Z,98997.15
2019-03-17T18:25:00.288Z,99010.57
2019-03-17T18:27:46.738Z,99010.57
2019-03-17T18:33:38.380Z,99025.37
2019-03-17T18:36:24.749Z,99031.00
2019-03-17T18:39:11.536Z,99031.00
2019-03-17T18:41:57.918Z,99036.97
2019-03-17T18:44:47.033Z,99050.78
2019-03-17T18:47:33.481Z,99049.14
2019-03-17T18:50:21.131Z,99051.81
2019-03-17T18:55:41.146Z,99055.97
2019-03-17T19:01:32.698Z,99068.95
2019-03-17T19:04:19.167Z,99068.95
2019-03-17T19:10:13.241Z,99082.27
2019-03-17T19:12:59.617Z,99074.02
2019-03-17T19:15:58.292Z,99077.38
2019-03-17T19:18:34.052Z,99087.01
2019-03-17T19:21:01.783Z,99087.01
2019-03-17T19:23:48.134Z,99102.45
2019-03-17T19:26:18.606Z,99102.45
2019-03-17T19:29:17.158Z,99114.89
2019-03-17T19:34:42.151Z,99113.64
2019-03-17T19:37:11.937Z,99124.75
2019-03-17T19:39:40.239Z,99122.34
2019-03-17T19:42:07.790Z,99122.34
2019-03-17T19:44:35.389Z,99138.39
2019-03-17T19:47:21.809Z,99133.27
2019-03-17T19:49:49.581Z,99133.27
2019-03-17T19:52:17.138Z,99157.05
2019-03-17T19:54:46.791Z,99154.05
2019-03-17T19:57:14.421Z,99160.55
2019-03-17T19:59:42.083Z,99160.55
2019-03-17T20:02:10.511Z,99162.23
2019-03-17T20:04:40.320Z,99165.23
2019-03-17T20:07:07.922Z,99165.23
2019-03-17T20:09:54.381Z,99173.65
2019-03-17T20:12:40.777Z,99183.64
2019-03-17T20:15:27.243Z,99189.88
2019-03-17T20:18:13.623Z,99197.78
2019-03-17T20:21:00.036Z,99197.78
2019-03-17T20:23:27.685Z,99200.02
2019-03-17T20:26:25.930Z,99225.52
2019-03-17T20:28:43.409Z,99225.52
2019-03-17T20:31:29.848Z,99234.30
2019-03-17T20:37:04.250Z,99239.15
2019-03-17T20:42:27.857Z,99253.72
2019-03-17T20:44:55.430Z,99253.72
2019-03-17T20:47:45.614Z,99252.98
2019-03-17T20:50:11.071Z,99257.89
2019-03-17T20:52:38.731Z,99253.08
2019-03-17T20:55:37.280Z,99262.88
2019-03-17T20:57:54.446Z,99262.88
2019-03-17T21:00:22.149Z,99263.19
2019-03-17T21:03:10.809Z,99267.53
2019-03-17T21:05:57.129Z,99275.09
2019-03-17T21:08:43.577Z,99275.09
2019-03-17T21:11:11.225Z,99281.77
2019-03-17T21:13:57.679Z,99279.80
2019-03-17T21:16:25.250Z,99280.47
2019-03-17T21:19:11.552Z,99283.98
2019-03-17T21:21:57.885Z,99288.23
2019-03-17T21:24:44.297Z,99291.83
2019-03-17T21:27:19.046Z,99291.83
2019-03-17T21:30:07.438Z,99303.33
2019-03-17T21:32:34.970Z,99303.33
2019-03-17T21:35:22.262Z,99293.09
2019-03-17T21:38:08.663Z,99299.02
2019-03-17T21:43:59.682Z,99303.80
2019-03-17T21:46:12.332Z,99303.80
2019-03-17T21:48:58.691Z,99310.13
2019-03-17T21:54:22.788Z,99298.83
2019-03-17T21:57:09.136Z,99304.38
2019-03-17T21:59:55.573Z,99308.33
2019-03-17T22:02:41.962Z,99308.41
2019-03-17T22:05:28.666Z,99311.16
2019-03-17T22:08:45.364Z,99310.79
2019-03-17T22:10:44.740Z,99310.79
2019-03-17T22:13:31.050Z,99315.11
2019-03-17T22:15:58.622Z,99315.11
2019-03-17T22:18:45.317Z,99310.95
2019-03-17T22:21:12.939Z,99312.36
2019-03-17T22:24:15.583Z,99316.67
2019-03-17T22:26:30.691Z,99323.54
2019-03-17T22:29:17.106Z,99318.55
2019-03-17T22:31:44.940Z,99326.38
2019-03-17T22:34:32.830Z,99332.95
2019-03-17T22:37:00.488Z,99332.95
2019-03-17T22:39:29.968Z,99336.53
2019-03-17T22:42:01.132Z,99336.53
2019-03-17T22:44:31.199Z,99330.48
2019-03-17T22:47:17.563Z,99331.27
2019-03-17T22:50:04.226Z,99331.27
2019-03-17T22:52:50.643Z,99349.88
2019-03-17T22:55:18.193Z,99349.88
2019-03-17T22:58:04.583Z,99343.49
2019-03-17T23:00:50.947Z,99343.49
2019-03-17T23:03:37.390Z,99346.30
2019-03-17T23:06:04.984Z,99346.30
2019-03-17T23:08:32.697Z,99349.88
2019-03-17T23:11:00.243Z,99350.44
2019-03-17T23:13:46.667Z,99348.30
2019-03-17T23:16:14.180Z,99348.95
2019-03-17T23:18:41.725Z,99359.65
2019-03-17T23:21:28.084Z,99358.42
2019-03-17T23:23:55.684Z,99360.68
2019-03-17T23:26:23.347Z,99363.97
2019-03-17T23:29:09.961Z,99362.10
2019-03-17T23:31:37.616Z,99362.10
2019-03-17T23:34:05.081Z,99358.69
2019-03-17T23:39:24.621Z,99362.92
2019-03-17T23:41:52.374Z,99362.92
2019-03-17T23:47:56.030Z,99369.41
2019-03-17T23:50:31.976Z,99370.53
2019-03-17T23:53:18.361Z,99368.68
2019-03-17T23:55:46.110Z,99368.68
2019-03-17T23:58:16.236Z,99368.68
